Time;durP1;ratioP1;P1;durP2;ratioP2;P2;SDS_P1;SDS_P2;PMS_P1;PMS_P2;Temp;Humidity;BMP_temperature;BMP_pressure;BME280_temperature;BME280_humidity;BME280_pressure;Samples;Min_cycle;Max_cycle;Signal;HPM_P1;HPM_P2
2022/12/03 00:01:27;;;;;;;10.63;7.37;;;;;;;6.07;56.52;102386.72;5012485;28;20454;-77
2022/12/03 00:03:53;;;;;;;7.93;6.35;;;;;;;6.04;56.73;102392.19;5012879;28;20396;-77
2022/12/03 00:06:18;;;;;;;7.45;5.80;;;;;;;6.11;56.66;102390.00;5012794;28;20380;-78
2022/12/03 00:08:44;;;;;;;7.33;5.70;;;;;;;6.16;56.63;102390.56;5013078;28;20399;-77
2022/12/03 00:11:09;;;;;;;9.23;6.53;;;;;;;6.20;56.23;102388.56;5012599;28;20388;-79
2022/12/03 00:13:35;;;;;;;10.43;6.47;;;;;;;6.20;56.32;102397.31;5014825;28;20758;-78
2022/12/03 00:16:00;;;;;;;8.47;6.20;;;;;;;6.05;56.44;102401.78;5015167;28;20397;-78
2022/12/03 00:18:26;;;;;;;7.60;5.93;;;;;;;6.09;56.69;102408.53;5016595;28;20477;-80
2022/12/03 00:20:51;;;;;;;8.52;6.20;;;;;;;6.14;56.48;102413.50;5012873;28;20405;-78
2022/12/03 00:23:17;;;;;;;8.20;6.00;;;;;;;6.20;56.48;102410.47;5015612;28;20376;-77
2022/12/03 00:25:42;;;;;;;7.70;5.93;;;;;;;6.25;56.13;102415.44;5012433;28;20389;-77
2022/12/03 00:28:07;;;;;;;6.85;5.57;;;;;;;6.22;56.33;102419.09;5010940;28;20399;-77
2022/12/03 00:30:33;;;;;;;6.83;5.47;;;;;;;6.28;56.14;102420.50;5018498;28;20727;-77
2022/12/03 00:32:58;;;;;;;8.37;5.80;;;;;;;6.27;56.39;102419.66;5029292;28;20754;-77
2022/12/03 00:35:24;;;;;;;8.18;6.50;;;;;;;6.26;56.30;102417.97;5011721;28;20848;-77
2022/12/03 00:37:49;;;;;;;10.03;7.70;;;;;;;6.23;56.23;102417.31;5010298;28;20380;-77
2022/12/03 00:40:15;;;;;;;11.03;7.60;;;;;;;6.16;56.38;102416.88;5010101;28;20451;-77
2022/12/03 00:42:40;;;;;;;11.07;7.68;;;;;;;6.23;56.70;102422.59;5011067;28;20580;-77
2022/12/03 00:45:06;;;;;;;9.88;7.75;;;;;;;6.17;56.42;102407.19;5011089;28;20399;-77
2022/12/03 00:47:32;;;;;;;10.77;7.22;;;;;;;6.04;56.60;102415.03;5011507;28;20376;-77
2022/12/03 00:49:58;;;;;;;10.77;7.15;;;;;;;5.96;56.99;102420.81;5011241;28;20915;-77
2022/12/03 00:52:23;;;;;;;10.02;7.18;;;;;;;6.01;56.99;102417.84;5009943;28;20734;-77
2022/12/03 00:54:48;;;;;;;10.80;7.20;;;;;;;6.05;57.02;102414.06;5010187;28;20395;-77
2022/12/03 00:57:14;;;;;;;9.70;6.63;;;;;;;6.06;56.99;102418.41;5017811;28;20384;-78
2022/12/03 00:59:39;;;;;;;8.50;6.43;;;;;;;6.01;57.09;102423.97;5025091;28;20392;-78
2022/12/03 01:02:05;;;;;;;7.60;5.80;;;;;;;5.94;57.45;102428.75;5010921;28;20391;-78
2022/12/03 01:04:32;;;;;;;8.13;6.63;;;;;;;5.97;57.21;102424.28;5011209;28;20387;-77
2022/12/03 01:06:58;;;;;;;7.82;6.18;;;;;;;6.03;57.07;102421.22;5011197;28;20383;-77
2022/12/03 01:09:23;;;;;;;8.25;6.30;;;;;;;6.03;57.28;102422.09;5011557;28;20446;-78
2022/12/03 01:11:49;;;;;;;10.40;7.00;;;;;;;5.83;57.44;102428.56;5007263;28;20378;-78
2022/12/03 01:14:17;;;;;;;7.93;6.33;;;;;;;5.64;57.69;102428.06;5016003;28;20499;-77
2022/12/03 01:16:43;;;;;;;8.25;6.45;;;;;;;5.66;58.31;102441.97;5012111;28;20384;-78
2022/12/03 01:19:14;;;;;;;8.25;6.10;;;;;;;5.62;58.23;102430.78;5011284;28;20463;-78
2022/12/03 01:21:40;;;;;;;9.40;7.13;;;;;;;5.76;57.78;102432.53;5010266;28;20377;-77
2022/12/03 01:24:05;;;;;;;10.15;6.75;;;;;;;5.84;57.98;102429.44;5011255;28;20380;-77
2022/12/03 01:26:31;;;;;;;8.40;6.55;;;;;;;5.78;58.02;102430.66;5011490;28;20387;-77
2022/12/03 01:28:56;;;;;;;8.43;6.90;;;;;;;5.81;58.09;102430.47;5011424;28;20850;-77
2022/12/03 01:34:06;;;;;;;8.88;7.00;;;;;;;5.74;57.85;102434.41;5011141;28;20411;-77
2022/12/03 01:36:33;;;;;;;9.43;7.03;;;;;;;5.81;58.07;102432.25;5010752;28;20388;-77
2022/12/03 01:38:59;;;;;;;9.33;6.70;;;;;;;5.73;57.97;102430.13;5020441;28;20459;-77
2022/12/03 01:41:25;;;;;;;9.05;6.70;;;;;;;5.73;58.06;102436.22;5013564;28;20430;-77
2022/12/03 01:43:52;;;;;;;7.93;6.40;;;;;;;5.86;58.37;102440.72;4994857;28;20469;-78
2022/12/03 01:46:21;;;;;;;10.50;6.95;;;;;;;6.03;58.05;102442.28;5023998;28;20899;-77
2022/12/03 01:48:48;;;;;;;9.73;6.80;;;;;;;6.08;57.49;102437.59;5018108;28;20386;-77
2022/12/03 01:51:13;;;;;;;9.02;7.20;;;;;;;6.05;57.84;102441.28;5030274;28;20382;-76
2022/12/03 01:53:39;;;;;;;8.07;6.63;;;;;;;5.96;57.77;102441.84;5030434;28;20732;-77
2022/12/03 01:56:05;;;;;;;8.43;6.32;;;;;;;5.88;57.64;102444.09;5019461;28;20475;-77
2022/12/03 01:58:31;;;;;;;7.55;6.70;;;;;;;5.83;58.20;102433.84;5003271;28;20521;-77
2022/12/03 02:01:06;;;;;;;7.83;6.37;;;;;;;5.92;57.84;102432.41;5004897;28;20399;-77
2022/12/03 02:03:31;;;;;;;7.93;6.07;;;;;;;5.89;57.97;102433.47;5021565;28;20375;-77
2022/12/03 02:05:57;;;;;;;7.90;6.60;;;;;;;5.96;57.77;102425.19;5023229;28;20438;-77
2022/12/03 02:08:26;;;;;;;8.95;6.55;;;;;;;5.97;57.97;102427.75;5006764;28;20404;-77
2022/12/03 02:10:52;;;;;;;9.82;6.78;;;;;;;5.91;58.16;102413.16;4996260;28;20875;-77
2022/12/03 02:13:18;;;;;;;9.40;7.70;;;;;;;5.81;58.16;102417.31;5022391;28;20401;-77
2022/12/03 02:15:44;;;;;;;10.60;7.88;;;;;;;5.74;58.22;102419.50;5012540;28;20453;-77
2022/12/03 02:18:28;;;;;;;11.13;7.82;;;;;;;5.75;58.27;102418.53;5010572;28;20844;-77
2022/12/03 02:21:08;;;;;;;10.35;7.88;;;;;;;5.82;58.25;102419.00;5010165;28;20356;-77
2022/12/03 02:23:46;;;;;;;10.93;7.45;;;;;;;5.91;58.47;102414.94;5023016;28;20378;-77
2022/12/03 02:26:11;;;;;;;10.57;7.80;;;;;;;5.91;58.08;102417.59;4996957;28;20380;-77
2022/12/03 02:28:37;;;;;;;11.57;8.70;;;;;;;5.96;58.11;102407.63;5021614;28;20385;-77
2022/12/03 02:31:04;;;;;;;9.97;7.30;;;;;;;5.92;58.19;102409.59;5026104;28;20383;-77
2022/12/03 02:33:30;;;;;;;9.90;6.95;;;;;;;5.82;58.40;102413.75;5010174;28;20408;-76
2022/12/03 02:35:56;;;;;;;9.73;6.53;;;;;;;5.69;58.48;102416.31;5026604;28;20378;-76
2022/12/03 02:38:25;;;;;;;8.93;6.73;;;;;;;5.64;58.38;102421.00;5021651;28;20384;-76
2022/12/03 02:40:54;;;;;;;8.48;6.35;;;;;;;5.73;58.60;102415.16;5012773;28;20387;-77
2022/12/03 02:43:21;;;;;;;7.82;5.95;;;;;;;5.67;58.08;102412.06;5020395;28;20462;-77
2022/12/03 02:45:52;;;;;;;8.13;6.18;;;;;;;5.62;58.09;102415.00;4994116;28;20405;-77
2022/12/03 02:48:33;;;;;;;8.70;6.40;;;;;;;5.56;58.56;102420.63;5000724;28;20388;-77
2022/12/03 02:51:02;;;;;;;7.85;6.53;;;;;;;5.57;58.65;102424.94;5010250;28;20856;-77
2022/12/03 02:53:41;;;;;;;7.18;5.53;;;;;;;5.51;58.27;102415.66;5013433;28;20771;-77
2022/12/03 02:56:08;;;;;;;6.50;5.40;;;;;;;5.61;58.45;102431.72;5014039;28;20865;-77
2022/12/03 02:58:34;;;;;;;7.07;5.50;;;;;;;5.69;58.12;102421.56;5018232;28;20390;-76
2022/12/03 03:01:01;;;;;;;7.20;5.60;;;;;;;5.84;57.83;102435.53;5015401;28;20380;-77
2022/12/03 03:03:28;;;;;;;6.93;5.03;;;;;;;5.86;57.56;102435.44;5013736;28;20395;-77
2022/12/03 03:05:57;;;;;;;131.00;85.68;;;;;;;5.90;57.21;102431.66;5014048;28;20387;-77
2022/12/03 03:08:24;;;;;;;8.20;6.03;;;;;;;5.92;57.05;102432.41;5013891;28;20892;-77
2022/12/03 03:10:50;;;;;;;6.95;5.95;;;;;;;5.90;57.48;102427.25;5013613;28;20709;-77
2022/12/03 03:13:17;;;;;;;7.70;6.50;;;;;;;5.86;57.20;102427.56;5013552;28;20407;-77
2022/12/03 03:15:43;;;;;;;6.97;5.70;;;;;;;5.76;57.56;102437.78;5013596;28;20431;-77
2022/12/03 03:18:11;;;;;;;7.60;6.55;;;;;;;5.77;57.30;102431.59;5013358;28;20381;-77
2022/12/03 03:20:37;;;;;;;13.60;12.35;;;;;;;5.89;57.27;102433.47;5013605;28;20687;-77
2022/12/03 03:23:18;;;;;;;26.40;24.30;;;;;;;5.85;57.64;102431.09;5013410;28;20975;-77
2022/12/03 03:25:48;;;;;;;14.15;12.80;;;;;;;5.97;56.96;102434.81;5012100;28;20380;-77
2022/12/03 03:28:15;;;;;;;7.53;6.00;;;;;;;5.83;57.09;102436.47;5013430;28;20447;-77
2022/12/03 03:30:42;;;;;;;15.60;14.20;;;;;;;5.72;57.36;102437.13;5013244;28;20446;-77
2022/12/03 03:33:09;;;;;;;7.82;5.53;;;;;;;5.71;57.65;102443.34;5005232;28;20409;-77
2022/12/03 03:35:36;;;;;;;6.68;5.70;;;;;;;5.63;57.83;102439.50;5007075;28;20382;-77
2022/12/03 03:38:02;;;;;;;8.20;6.10;;;;;;;5.60;57.62;102434.44;5013150;28;20384;-77
2022/12/03 03:40:28;;;;;;;7.13;5.63;;;;;;;5.59;57.82;102433.59;5013189;28;20399;-77
2022/12/03 03:42:54;;;;;;;7.88;6.32;;;;;;;5.61;57.83;102442.22;5013164;28;20373;-77
2022/12/03 03:45:20;;;;;;;7.90;6.30;;;;;;;5.63;58.22;102439.50;5012690;28;20444;-77
2022/12/03 03:47:46;;;;;;;7.70;6.28;;;;;;;5.46;57.77;102430.88;5026010;28;20405;-77
2022/12/03 03:50:13;;;;;;;10.23;6.40;;;;;;;5.55;58.40;102437.34;5021118;28;20437;-77
2022/12/03 03:52:40;;;;;;;7.97;6.30;;;;;;;5.49;58.05;102433.31;5005243;28;20406;-77
2022/12/03 03:55:06;;;;;;;8.68;6.57;;;;;;;5.54;57.83;102435.66;4992402;28;20385;-77
2022/12/03 03:57:32;;;;;;;8.48;6.32;;;;;;;5.61;57.99;102436.13;5005329;28;20373;-77
2022/12/03 03:59:58;;;;;;;8.73;6.80;;;;;;;5.68;57.60;102438.28;5012254;28;20392;-76
2022/12/03 04:02:25;;;;;;;8.35;7.28;;;;;;;5.72;58.06;102431.88;5012745;28;20467;-77
2022/12/03 04:04:51;;;;;;;8.30;6.60;;;;;;;5.75;57.69;102434.31;5012220;28;20433;-77
2022/12/03 04:07:17;;;;;;;9.63;6.90;;;;;;;5.67;57.40;102435.75;5022089;28;20385;-77
2022/12/03 04:09:43;;;;;;;7.93;6.23;;;;;;;5.47;58.22;102427.28;5013473;28;20409;-77
2022/12/03 04:14:55;;;;;;;7.90;6.38;;;;;;;5.33;58.04;102440.44;5012662;28;20399;-77
2022/12/03 04:17:20;;;;;;;9.10;6.53;;;;;;;5.42;58.15;102442.53;5012448;28;20809;-77
2022/12/03 04:19:46;;;;;;;8.65;6.70;;;;;;;5.59;58.18;102438.84;5012501;28;20420;-77
2022/12/03 04:28:47;;;;;;;9.27;7.78;;;;;;;5.67;57.48;102436.59;5024726;28;20450;-77
2022/12/03 04:30:24;;;;;;;12.60;11.33;;;;;;;5.90;56.79;102436.94;5019696;28;20551;-78
2022/12/03 04:35:43;;;;;;;10.85;9.75;;;;;;;5.91;56.85;102436.00;5026160;28;20468;-78
2022/12/03 04:38:09;;;;;;;8.15;6.95;;;;;;;5.86;56.97;102432.81;4999511;28;20376;-78
2022/12/03 04:43:19;;;;;;;11.88;7.75;;;;;;;5.72;56.95;102444.19;5004365;28;20860;-78
2022/12/03 04:45:44;;;;;;;8.60;6.33;;;;;;;5.62;57.19;102443.06;5025287;28;20406;-77
2022/12/03 04:48:10;;;;;;;26.05;23.75;;;;;;;5.66;57.51;102442.78;5008642;28;20378;-78
2022/12/03 04:50:35;;;;;;;7.93;7.00;;;;;;;5.80;57.25;102447.22;5003751;28;20391;-77
2022/12/03 04:53:01;;;;;;;9.90;7.10;;;;;;;5.69;57.78;102444.38;5028475;28;20883;-77
2022/12/03 04:55:26;;;;;;;7.33;5.53;;;;;;;5.55;57.33;102451.34;5022772;28;20384;-77
2022/12/03 04:57:51;;;;;;;7.50;5.85;;;;;;;5.32;57.63;102449.28;5012561;28;20380;-77
2022/12/03 05:00:17;;;;;;;6.90;5.40;;;;;;;5.46;57.87;102453.72;5018690;28;20800;-77
2022/12/03 05:02:43;;;;;;;8.20;7.20;;;;;;;5.58;57.26;102449.47;5011751;28;20450;-77
2022/12/03 05:05:09;;;;;;;7.07;5.83;;;;;;;5.66;56.74;102463.84;5012024;28;20379;-77
2022/12/03 05:07:35;;;;;;;27.95;25.55;;;;;;;5.67;56.93;102462.06;5011836;28;20387;-77
2022/12/03 05:10:00;;;;;;;8.07;6.93;;;;;;;5.68;57.20;102461.97;5011841;28;20385;-76
2022/12/03 05:12:26;;;;;;;24.48;22.13;;;;;;;5.67;57.18;102464.69;5011019;28;20422;-77
2022/12/03 05:14:51;;;;;;;8.90;7.97;;;;;;;5.71;57.01;102459.16;5006036;28;20394;-77
2022/12/03 05:17:17;;;;;;;9.20;7.37;;;;;;;5.73;56.94;102469.56;5008117;28;20388;-77
2022/12/03 05:22:26;;;;;;;25.05;23.00;;;;;;;5.78;57.05;102469.28;5011299;28;20436;-77
2022/12/03 05:24:51;;;;;;;26.27;24.02;;;;;;;5.83;56.82;102465.41;5010744;28;20483;-78
2022/12/03 05:27:17;;;;;;;10.30;8.90;;;;;;;5.92;56.39;102466.63;5011112;28;20471;-78
2022/12/03 05:29:42;;;;;;;8.90;6.63;;;;;;;5.85;56.46;102467.94;5011428;28;20959;-77
2022/12/03 05:32:08;;;;;;;9.20;6.38;;;;;;;5.71;57.14;102471.47;4996276;28;20393;-77
2022/12/03 05:34:33;;;;;;;8.10;6.18;;;;;;;5.47;57.20;102465.91;5003731;28;20406;-77
2022/12/03 05:36:59;;;;;;;8.30;6.13;;;;;;;5.59;57.21;102477.47;4997308;28;20418;-77
2022/12/03 05:39:24;;;;;;;7.80;6.13;;;;;;;5.51;57.52;102473.53;5010501;28;20671;-78
2022/12/03 05:44:33;;;;;;;7.80;6.25;;;;;;;5.40;57.91;102477.72;5010897;28;20859;-78
2022/12/03 05:46:59;;;;;;;8.70;6.87;;;;;;;5.38;57.81;102487.50;5010697;28;20412;-77
2022/12/03 05:49:24;;;;;;;9.70;6.47;;;;;;;5.33;57.74;102480.75;5010769;28;20466;-78
2022/12/03 05:51:50;;;;;;;8.93;6.60;;;;;;;5.25;58.44;102479.50;5020178;28;20382;-77
2022/12/03 05:54:15;;;;;;;9.30;6.57;;;;;;;5.15;58.24;102484.47;5022042;28;20398;-77
2022/12/03 05:56:41;;;;;;;10.50;7.33;;;;;;;5.25;58.42;102482.97;5020221;28;20384;-78
2022/12/03 05:59:06;;;;;;;8.57;6.47;;;;;;;5.38;58.28;102490.97;5018745;28;20377;-78
2022/12/03 06:01:32;;;;;;;8.47;6.03;;;;;;;5.41;58.07;102495.22;5028742;28;20386;-78
2022/12/03 06:03:57;;;;;;;8.48;6.28;;;;;;;5.44;57.73;102500.28;5021075;28;20788;-78
2022/12/03 06:06:23;;;;;;;11.37;6.70;;;;;;;5.47;58.01;102487.78;5024606;28;20382;-78
2022/12/03 06:08:48;;;;;;;8.93;6.30;;;;;;;5.54;57.33;102489.09;5030217;28;20379;-78
2022/12/03 06:11:13;;;;;;;7.07;5.67;;;;;;;5.53;57.48;102492.69;5030249;28;20383;-78
2022/12/03 06:13:39;;;;;;;6.80;5.25;;;;;;;5.65;57.35;102498.97;5025146;28;20398;-79
2022/12/03 06:16:04;;;;;;;7.23;5.40;;;;;;;5.67;57.22;102502.38;5028841;28;20484;-78
2022/12/03 06:18:30;;;;;;;7.37;5.80;;;;;;;5.64;56.67;102499.94;5030737;28;20383;-79
2022/12/03 06:20:55;;;;;;;7.97;6.37;;;;;;;5.63;56.97;102494.75;5025564;28;20383;-77
2022/12/03 06:23:21;;;;;;;9.38;7.20;;;;;;;5.71;57.05;102492.50;5026795;28;20758;-78
2022/12/03 06:25:46;;;;;;;8.37;6.20;;;;;;;5.76;57.25;102506.22;5022111;28;20411;-78
2022/12/03 06:28:12;;;;;;;9.30;6.83;;;;;;;5.77;56.89;102507.91;5034363;28;20397;-77
2022/12/03 06:30:37;;;;;;;8.50;6.63;;;;;;;5.81;57.02;102509.41;5024361;28;20377;-78
2022/12/03 06:33:03;;;;;;;9.07;6.77;;;;;;;5.85;56.86;102508.31;5031029;28;20412;-79
2022/12/03 06:35:28;;;;;;;9.50;7.10;;;;;;;5.82;56.97;102497.94;5028564;28;20408;-78
2022/12/03 06:37:54;;;;;;;8.63;7.00;;;;;;;5.78;56.85;102504.34;5029098;28;20827;-79
2022/12/03 06:40:19;;;;;;;10.50;8.68;;;;;;;5.63;57.41;102503.47;5029629;28;20835;-78
2022/12/03 06:42:45;;;;;;;10.27;7.70;;;;;;;5.46;57.79;102507.16;5022476;28;20385;-77
2022/12/03 06:45:11;;;;;;;8.37;6.70;;;;;;;5.32;57.58;102507.13;5023362;28;20492;-78
2022/12/03 06:47:37;;;;;;;7.55;5.88;;;;;;;5.40;57.57;102506.66;5024214;28;20493;-77
2022/12/03 06:50:04;;;;;;;7.65;6.00;;;;;;;5.49;57.55;102506.97;5028699;28;20394;-78
2022/12/03 06:52:29;;;;;;;6.93;5.80;;;;;;;5.48;57.17;102507.91;5029447;28;20856;-78
2022/12/03 06:54:55;;;;;;;8.65;6.50;;;;;;;5.63;57.08;102508.75;5024885;28;20378;-78
2022/12/03 06:57:20;;;;;;;9.63;7.57;;;;;;;5.70;57.14;102509.22;5032203;28;20753;-79
2022/12/03 06:59:45;;;;;;;9.33;7.23;;;;;;;5.67;57.48;102514.66;5027217;28;20434;-78
2022/12/03 07:02:11;;;;;;;9.27;7.07;;;;;;;5.63;57.21;102500.00;5018155;28;20370;-78
2022/12/03 07:04:37;;;;;;;7.93;6.25;;;;;;;5.53;57.47;102508.47;5017744;28;20380;-77
2022/12/03 07:07:02;;;;;;;8.23;6.45;;;;;;;5.43;58.14;102512.59;5014088;28;20376;-78
2022/12/03 07:09:28;;;;;;;8.63;7.03;;;;;;;5.57;57.84;102518.81;5014851;28;20385;-80
2022/12/03 07:11:53;;;;;;;16.30;10.60;;;;;;;5.63;57.69;102514.00;5019021;28;21036;-79
2022/12/03 07:14:19;;;;;;;13.47;9.37;;;;;;;5.60;57.59;102516.84;5014051;28;20415;-78
2022/12/03 07:16:44;;;;;;;13.93;8.93;;;;;;;5.72;57.78;102518.72;5012990;28;20403;-77
2022/12/03 07:19:10;;;;;;;11.32;8.43;;;;;;;5.74;57.31;102530.00;5013001;28;20782;-77
2022/12/03 07:21:36;;;;;;;7.88;6.43;;;;;;;5.62;57.75;102530.75;5015002;28;20395;-77
2022/12/03 07:24:01;;;;;;;8.80;6.77;;;;;;;5.55;57.84;102526.78;5011596;28;20849;-76
2022/12/03 07:26:26;;;;;;;8.27;6.33;;;;;;;5.62;57.17;102530.75;5016874;28;20860;-78
2022/12/03 07:28:52;;;;;;;7.87;6.00;;;;;;;5.61;57.27;102536.09;5019899;28;20414;-77
2022/12/03 07:31:17;;;;;;;7.93;6.28;;;;;;;5.66;57.32;102529.63;5021428;28;20755;-78
2022/12/03 07:33:43;;;;;;;9.07;6.37;;;;;;;5.81;56.92;102535.72;5009613;28;20405;-77
2022/12/03 07:36:09;;;;;;;9.20;6.50;;;;;;;5.87;56.67;102537.13;5018431;28;20457;-77
2022/12/03 07:38:34;;;;;;;8.20;5.10;;;;;;;5.81;57.01;102538.34;5013216;28;20392;-77
2022/12/03 07:40:59;;;;;;;7.47;5.33;;;;;;;5.91;57.04;102534.22;5019391;28;20394;-76
2022/12/03 07:43:25;;;;;;;9.00;5.88;;;;;;;5.98;56.36;102532.09;5028910;28;20382;-77
2022/12/03 07:45:50;;;;;;;9.07;6.33;;;;;;;5.93;56.56;102540.25;5024683;28;20793;-77
2022/12/03 07:48:16;;;;;;;28.70;17.70;;;;;;;5.97;56.48;102532.19;5023455;28;20489;-77
2022/12/03 07:50:41;;;;;;;16.92;10.52;;;;;;;6.05;56.57;102533.41;5020979;28;20390;-77
2022/12/03 07:53:07;;;;;;;16.75;11.77;;;;;;;6.11;56.47;102537.44;5013354;28;20396;-78
2022/12/03 07:55:32;;;;;;;26.93;24.10;;;;;;;6.02;56.50;102540.66;5027351;28;20487;-78
2022/12/03 07:57:58;;;;;;;7.63;6.30;;;;;;;5.91;56.94;102538.66;5025863;28;20419;-78
2022/12/03 08:00:23;;;;;;;6.50;5.10;;;;;;;5.83;57.26;102535.63;5027329;28;20394;-78
2022/12/03 08:02:49;;;;;;;87.50;81.13;;;;;;;5.88;57.10;102530.94;5021205;28;20850;-77
2022/12/03 08:05:14;;;;;;;7.10;5.90;;;;;;;6.05;56.57;102524.66;5022785;28;20412;-77
2022/12/03 08:07:40;;;;;;;90.15;83.15;;;;;;;6.05;56.48;102533.41;5018459;28;20868;-77
2022/12/03 08:10:06;;;;;;;30.65;28.23;;;;;;;6.07;56.89;102528.06;4997400;28;20436;-76
2022/12/03 08:12:40;;;;;;;7.93;6.38;;;;;;;6.13;56.35;102531.13;5025097;28;20425;-77
2022/12/03 08:15:10;;;;;;;18.38;16.63;;;;;;;6.04;56.33;102529.06;5012197;28;20406;-78
2022/12/03 08:17:38;;;;;;;7.75;5.85;;;;;;;5.97;56.43;102535.66;5013876;28;20527;-79
2022/12/03 08:20:16;;;;;;;9.57;7.55;;;;;;;6.00;56.79;102545.19;5003732;28;20400;-78
2022/12/03 08:22:43;;;;;;;15.90;13.30;;;;;;;6.04;56.37;102541.41;5005322;28;20505;-78
2022/12/03 08:25:16;;;;;;;15.35;13.90;;;;;;;6.05;56.57;102533.41;5026413;28;20392;-77
2022/12/03 08:27:41;;;;;;;8.10;6.33;;;;;;;6.10;56.47;102535.75;5012975;28;20396;-77
2022/12/03 08:30:10;;;;;;;7.70;5.77;;;;;;;6.03;56.57;102543.19;5004099;28;20766;-78
2022/12/03 08:32:35;;;;;;;7.50;6.25;;;;;;;5.98;56.71;102541.75;5011792;28;20426;-76
2022/12/03 08:35:01;;;;;;;7.70;6.47;;;;;;;6.00;56.79;102543.38;5011050;28;20483;-76
2022/12/03 08:37:28;;;;;;;7.85;6.57;;;;;;;6.03;56.51;102548.47;5011217;28;20857;-77
2022/12/03 08:39:54;;;;;;;8.55;7.50;;;;;;;5.98;56.78;102552.28;5011650;28;20410;-77
2022/12/03 08:42:40;;;;;;;8.53;6.70;;;;;;;5.92;56.92;102548.22;5003656;28;20937;-78
2022/12/03 08:45:20;;;;;;;11.73;10.57;;;;;;;5.84;56.48;102547.88;5012720;28;20500;-78
2022/12/03 08:47:46;;;;;;;13.20;11.27;;;;;;;5.94;56.78;102548.97;5014510;28;20418;-77
2022/12/03 08:50:28;;;;;;;8.50;7.00;;;;;;;6.06;56.58;102544.78;5015328;28;20403;-77
2022/12/03 08:52:58;;;;;;;9.83;7.03;;;;;;;6.23;57.18;102549.84;5010579;28;20469;-77
2022/12/03 08:55:50;;;;;;;8.82;7.00;;;;;;;6.11;57.25;102550.63;5004171;28;20436;-77
2022/12/03 08:58:39;;;;;;;8.00;6.45;;;;;;;5.94;57.47;102551.59;5012281;28;20856;-77
2022/12/03 09:01:23;;;;;;;10.45;7.25;;;;;;;5.97;57.19;102562.00;5010913;28;20678;-76
2022/12/03 09:03:51;;;;;;;21.88;20.02;;;;;;;5.94;56.93;102564.75;5030766;28;20392;-76
2022/12/03 09:06:17;;;;;;;9.77;8.20;;;;;;;5.90;57.21;102573.78;5001742;28;20892;-77
2022/12/03 09:08:43;;;;;;;12.45;10.00;;;;;;;5.98;56.71;102566.31;5001214;28;20413;-79
2022/12/03 09:11:08;;;;;;;11.68;10.48;;;;;;;6.11;56.73;102566.41;5002808;28;20785;-77
2022/12/03 09:13:34;;;;;;;8.07;6.18;;;;;;;6.09;56.71;102565.66;5010737;28;20404;-77
2022/12/03 09:15:59;;;;;;;97.68;88.88;;;;;;;6.13;56.48;102561.88;5002491;28;20903;-77
2022/12/03 09:18:25;;;;;;;46.23;42.70;;;;;;;6.21;56.68;102572.81;5011899;28;20456;-77
2022/12/03 09:20:50;;;;;;;7.43;6.50;;;;;;;6.26;55.92;102561.97;5003433;28;20438;-78
2022/12/03 09:23:16;;;;;;;9.05;7.05;;;;;;;6.30;56.19;102563.47;5000970;28;20456;-77
2022/12/03 09:25:41;;;;;;;14.13;12.77;;;;;;;6.31;56.03;102558.09;5011635;28;20813;-77
2022/12/03 09:28:07;;;;;;;11.73;7.93;;;;;;;6.36;56.12;102555.19;5023172;28;20456;-78
2022/12/03 09:30:32;;;;;;;9.80;6.73;;;;;;;6.29;56.18;102556.53;5006570;28;20425;-77
2022/12/03 09:32:58;;;;;;;8.55;6.82;;;;;;;6.23;56.42;102552.50;5001409;28;20898;-77
2022/12/03 09:35:25;;;;;;;13.05;8.02;;;;;;;6.26;56.55;102554.91;4997238;28;20400;-79
2022/12/03 09:37:51;;;;;;;10.70;8.18;;;;;;;6.04;56.73;102546.66;5008333;28;20916;-78
2022/12/03 09:40:17;;;;;;;10.83;7.53;;;;;;;6.05;57.07;102546.56;5013332;28;20530;-78
2022/12/03 09:42:42;;;;;;;9.73;7.73;;;;;;;6.00;56.72;102550.44;5013827;28;20464;-77
2022/12/03 09:45:13;;;;;;;10.83;8.90;;;;;;;5.96;57.00;102546.28;5020762;28;20410;-77
2022/12/03 09:47:42;;;;;;;10.52;7.78;;;;;;;5.94;56.75;102546.34;5022755;28;20418;-78
2022/12/03 09:50:13;;;;;;;22.97;20.50;;;;;;;6.02;56.93;102549.38;5024233;28;20404;-77
2022/12/03 09:52:39;;;;;;;49.78;45.63;;;;;;;6.16;56.64;102545.91;5024945;28;20894;-79
2022/12/03 09:55:12;;;;;;;20.87;18.80;;;;;;;6.18;56.64;102543.19;5021515;28;20469;-79
2022/12/03 09:57:38;;;;;;;10.68;7.43;;;;;;;6.15;57.20;102549.47;5025271;28;20390;-78
2022/12/03 10:00:14;;;;;;;11.27;8.13;;;;;;;6.16;56.87;102545.03;5026233;28;20382;-77
2022/12/03 10:02:40;;;;;;;10.88;8.05;;;;;;;6.16;56.91;102551.19;5025642;28;20382;-78
2022/12/03 10:05:07;;;;;;;11.23;8.95;;;;;;;6.19;57.10;102558.03;5026329;28;20452;-77
2022/12/03 10:07:33;;;;;;;10.27;8.15;;;;;;;6.17;56.93;102554.66;5024420;28;20388;-76
2022/12/03 10:09:58;;;;;;;10.63;7.82;;;;;;;6.15;57.08;102544.22;5019011;28;20386;-77
2022/12/03 10:12:24;;;;;;;11.82;9.65;;;;;;;6.12;57.24;102537.34;5020171;28;20411;-78
2022/12/03 10:14:50;;;;;;;34.92;31.13;;;;;;;6.14;56.80;102532.00;5026264;28;20402;-77
2022/12/03 10:17:16;;;;;;;60.87;55.27;;;;;;;6.18;57.14;102535.28;5019727;28;20542;-77
2022/12/03 10:19:43;;;;;;;22.67;19.57;;;;;;;6.26;56.70;102527.72;5020821;28;20788;-78
2022/12/03 10:22:09;;;;;;;333.52;269.42;;;;;;;6.31;56.88;102521.22;5016675;28;20388;-78
2022/12/03 10:24:36;;;;;;;16.50;10.20;;;;;;;6.32;56.70;102533.47;5021323;28;20466;-77
2022/12/03 10:27:22;;;;;;;57.33;52.28;;;;;;;6.36;56.71;102533.28;5026658;28;20813;-78
2022/12/03 10:29:59;;;;;;;11.27;8.02;;;;;;;6.31;56.78;102523.84;5019768;28;20864;-78
2022/12/03 10:32:45;;;;;;;11.07;8.25;;;;;;;6.28;56.71;102525.84;5002715;28;20392;-77
2022/12/03 10:35:11;;;;;;;14.73;10.20;;;;;;;6.39;56.99;102533.94;5002540;28;20399;-76
2022/12/03 10:37:56;;;;;;;199.67;181.03;;;;;;;6.48;56.69;102532.47;5003976;28;20726;-78
2022/12/03 10:40:30;;;;;;;22.05;12.10;;;;;;;6.40;56.34;102532.97;5000153;28;20396;-77
2022/12/03 10:43:12;;;;;;;35.38;17.27;;;;;;;6.35;56.74;102532.41;5007316;28;20402;-78
2022/12/03 10:45:38;;;;;;;96.63;86.22;;;;;;;6.39;56.87;102528.66;5001213;28;20797;-78
2022/12/03 10:48:18;;;;;;;18.45;12.63;;;;;;;6.26;56.85;102518.03;5011180;28;20399;-78
2022/12/03 10:51:20;;;;;;;53.00;48.22;;;;;;;6.30;56.75;102518.69;5002505;28;21187;-79
2022/12/03 10:53:47;;;;;;;17.98;12.40;;;;;;;6.43;56.53;102524.03;4966430;28;20734;-78
2022/12/03 10:56:32;;;;;;;13.35;8.70;;;;;;;6.43;56.79;102518.78;5007596;28;20404;-78
2022/12/03 10:58:58;;;;;;;13.52;9.45;;;;;;;6.37;56.60;102512.09;5002132;28;20411;-77
2022/12/03 11:01:25;;;;;;;11.27;8.13;;;;;;;6.27;57.01;102513.63;5000542;28;20400;-77
2022/12/03 11:03:51;;;;;;;12.05;8.90;;;;;;;6.17;57.12;102507.25;5022182;28;20396;-78
2022/12/03 11:06:19;;;;;;;9.55;8.27;;;;;;;6.17;57.49;102505.44;5011783;28;20385;-77
2022/12/03 11:08:53;;;;;;;11.85;8.90;;;;;;;6.20;57.18;102501.81;5006979;28;20432;-79
2022/12/03 11:11:26;;;;;;;15.48;9.60;;;;;;;6.20;57.29;102494.72;5011757;28;20484;-79
2022/12/03 11:13:54;;;;;;;15.25;11.73;;;;;;;6.37;57.24;102496.28;5010815;28;20411;-76
2022/12/03 11:16:52;;;;;;;9.13;7.22;;;;;;;6.28;57.60;102503.00;5007411;28;20408;-76
2022/12/03 11:19:37;;;;;;;14.93;11.82;;;;;;;6.38;57.43;102494.50;4959549;28;20486;-77
2022/12/03 11:22:03;;;;;;;11.13;8.27;;;;;;;6.40;57.22;102492.63;5001080;28;20460;-78
2022/12/03 11:24:30;;;;;;;12.93;9.43;;;;;;;6.37;57.39;102491.00;5007956;28;20381;-78
2022/12/03 11:26:55;;;;;;;12.32;8.85;;;;;;;6.35;57.64;102485.00;5014877;28;20888;-78
2022/12/03 11:29:49;;;;;;;18.33;16.40;;;;;;;6.39;57.77;102489.16;5010902;28;20388;-79
2022/12/03 11:32:36;;;;;;;32.42;29.40;;;;;;;6.28;57.72;102495.09;5009436;28;20466;-78
2022/12/03 11:35:02;;;;;;;10.50;6.75;;;;;;;6.32;57.78;102493.97;5020070;28;20433;-78
2022/12/03 11:37:28;;;;;;;11.43;8.23;;;;;;;6.27;57.75;102492.56;5016096;28;20460;-78
2022/12/03 11:39:57;;;;;;;16.80;15.07;;;;;;;6.21;57.85;102488.53;5021107;28;20394;-78
2022/12/03 11:42:25;;;;;;;9.10;7.40;;;;;;;6.13;57.84;102490.81;5017484;28;20392;-78
2022/12/03 11:45:29;;;;;;;22.90;20.10;;;;;;;6.17;57.84;102492.28;5014688;28;20396;-78
2022/12/03 11:47:57;;;;;;;12.95;10.57;;;;;;;6.15;58.09;102496.81;5001642;28;20419;-77
2022/12/03 11:50:39;;;;;;;24.33;22.10;;;;;;;6.19;58.11;102498.28;5024942;28;20390;-81
2022/12/03 11:53:18;;;;;;;54.97;49.90;;;;;;;6.16;58.15;102489.75;5014830;28;20439;-78
2022/12/03 11:55:47;;;;;;;77.97;71.05;;;;;;;6.22;58.33;102486.75;5019942;28;20489;-78